Terminal Aerodrome Forecast
Issued by NWS Memphis, TN

Home | Current Version | Previous Version | Text Only | Print | Product List | Glossary On
Versions: 1 2 3 4 5 6 7 8 9 10 11 12 13 14 15 16 17 18 19 20
807
FTUS44 KMEG 211747 AAA
TAFJBR
TAF AMD
KJBR 211747Z 2118/2218 17007KT P6SM VCSH OVC015
      TEMPO 2118/2120 5SM -SHRA BR OVC006
     FM212000 14007KT P6SM VCSH OVC020
     FM220400 VRB03KT 5SM BR OVC007
     FM220800 00000KT 1/2SM FG OVC005
      TEMPO 2209/2213 1/4SM FG VV001
     FM221600 03002KT P6SM SCT005 OVC010=

USA.gov is the U.S. government's official web portal to all federal, state and local government web resources and services.